createdAt,value
2022-10-22T00:02:12.450Z,99.99
2022-10-22T00:07:12.562Z,99.99
2022-10-22T00:12:12.657Z,99.99
2022-10-22T00:17:12.774Z,99.99
2022-10-22T00:22:13.882Z,99.99
2022-10-22T00:27:13.007Z,99.99
2022-10-22T00:32:14.105Z,99.99
2022-10-22T00:37:15.196Z,99.99
2022-10-22T00:42:16.292Z,99.99
2022-10-22T00:47:17.608Z,99.99
2022-10-22T00:52:18.693Z,99.99
2022-10-22T00:57:19.806Z,99.99
2022-10-22T01:02:20.899Z,99.99
2022-10-22T01:07:22.074Z,99.99
2022-10-22T01:12:23.177Z,99.99
2022-10-22T01:17:26.260Z,99.99
2022-10-22T01:22:26.339Z,99.99
2022-10-22T01:27:26.434Z,99.99
2022-10-22T01:32:25.546Z,99.99
2022-10-22T01:37:26.634Z,99.99
2022-10-22T01:42:28.769Z,99.99
2022-10-22T01:47:27.865Z,99.99
2022-10-22T01:52:28.960Z,99.99
2022-10-22T01:57:30.060Z,99.99
2022-10-22T02:02:32.148Z,99.99
2022-10-22T02:07:32.257Z,99.99
2022-10-22T02:12:32.353Z,99.99
2022-10-22T02:17:31.431Z,99.99
2022-10-22T02:22:33.526Z,99.99
2022-10-22T02:27:33.626Z,99.99
2022-10-22T02:32:32.708Z,99.99
2022-10-22T02:37:33.813Z,99.99
2022-10-22T02:42:34.912Z,99.99
2022-10-22T02:47:37.027Z,99.99
2022-10-22T02:52:36.173Z,99.99
2022-10-22T02:57:37.499Z,99.99
2022-10-22T03:02:36.765Z,99.99
2022-10-22T03:07:39.247Z,99.99
2022-10-22T03:12:39.056Z,99.99
2022-10-22T03:17:38.560Z,99.99
2022-10-22T03:22:38.819Z,99.99
2022-10-22T03:27:38.107Z,99.99
2022-10-22T03:32:37.692Z,99.99
2022-10-22T03:37:39.154Z,99.99
2022-10-22T03:42:38.455Z,99.99
2022-10-22T03:47:40.880Z,99.99
2022-10-22T03:52:41.128Z,99.99
2022-10-22T03:57:40.991Z,99.99
2022-10-22T04:02:40.330Z,99.99
2022-10-22T04:07:42.285Z,99.99
2022-10-22T04:12:41.661Z,99.99
2022-10-22T04:17:43.043Z,99.99
2022-10-22T04:22:42.823Z,99.99
2022-10-22T04:27:42.144Z,99.99
2022-10-22T04:32:41.627Z,99.99
2022-10-22T04:37:43.190Z,99.99
2022-10-22T04:42:42.417Z,99.99
2022-10-22T04:47:43.796Z,99.99
2022-10-22T04:52:44.019Z,99.99
2022-10-22T04:57:44.098Z,99.99
2022-10-22T05:02:44.757Z,99.99
2022-10-22T05:07:44.875Z,99.99
2022-10-22T05:12:44.971Z,99.99
2022-10-22T05:17:45.057Z,99.99
2022-10-22T05:22:45.156Z,99.99
2022-10-22T05:27:44.254Z,99.99
2022-10-22T05:32:46.361Z,99.99
2022-10-22T05:37:45.549Z,99.99
2022-10-22T05:42:46.785Z,99.99
2022-10-22T05:47:47.956Z,99.99
2022-10-22T05:52:49.043Z,99.99
2022-10-22T05:57:51.138Z,99.48
2022-10-22T06:02:49.268Z,98.46
2022-10-22T06:07:51.362Z,98.46
2022-10-22T06:12:51.459Z,98.36
2022-10-22T06:17:51.609Z,98.26
2022-10-22T06:22:50.723Z,97.34
2022-10-22T06:27:53.825Z,98.56
2022-10-22T06:32:52.934Z,98.21
2022-10-22T06:37:56.029Z,97.30
2022-10-22T06:42:55.287Z,97.09
2022-10-22T06:47:56.428Z,96.18
2022-10-22T06:52:57.540Z,96.33
2022-10-22T06:57:58.677Z,95.62
2022-10-22T07:02:59.966Z,94.15
2022-10-22T07:08:01.077Z,94.15
2022-10-22T07:13:02.235Z,93.09
2022-10-22T07:18:03.458Z,92.79
2022-10-22T07:23:04.565Z,92.74
2022-10-22T07:28:05.677Z,91.28
2022-10-22T07:33:07.778Z,90.77
2022-10-22T07:38:06.919Z,89.15
2022-10-22T07:43:08.019Z,90.67
2022-10-22T07:48:09.274Z,90.97
2022-10-22T07:53:10.526Z,90.32
2022-10-22T07:58:11.624Z,90.73
2022-10-22T08:03:12.716Z,90.12
2022-10-22T08:08:14.837Z,90.42
2022-10-22T08:13:14.934Z,88.40
2022-10-22T08:18:14.168Z,87.74
2022-10-22T08:23:16.268Z,85.99
2022-10-22T08:28:19.857Z,86.29
2022-10-22T08:33:15.590Z,85.78
2022-10-22T08:38:17.734Z,87.30
2022-10-22T08:43:17.870Z,86.19
2022-10-22T08:48:17.072Z,85.58
2022-10-22T08:53:18.155Z,84.12
2022-10-22T08:58:19.246Z,84.63
2022-10-22T09:03:21.350Z,85.19
2022-10-22T09:08:22.459Z,84.99
2022-10-22T09:13:21.654Z,85.30
2022-10-22T09:18:23.816Z,84.11
2022-10-22T09:23:23.110Z,80.92
2022-10-22T09:28:24.320Z,80.88
2022-10-22T09:33:26.443Z,80.24
2022-10-22T09:38:26.582Z,80.27
2022-10-22T09:43:25.669Z,82.03
2022-10-22T09:48:26.764Z,78.69
2022-10-22T09:53:27.859Z,77.95
2022-10-22T09:58:29.956Z,79.90
2022-10-22T10:03:29.112Z,78.49
2022-10-22T10:08:30.250Z,79.19
2022-10-22T10:13:32.349Z,77.95
2022-10-22T10:18:32.441Z,76.67
2022-10-22T10:23:31.606Z,76.83
2022-10-22T10:28:34.724Z,76.83
2022-10-22T10:33:33.933Z,77.67
2022-10-22T10:38:35.047Z,77.59
2022-10-22T10:43:36.289Z,74.74
2022-10-22T10:48:38.408Z,72.40
2022-10-22T10:53:36.834Z,72.13
2022-10-22T10:58:37.959Z,69.89
2022-10-22T11:03:39.076Z,69.66
2022-10-22T11:08:41.221Z,67.76
2022-10-22T11:13:40.454Z,68.82
2022-10-22T11:18:41.582Z,66.42
2022-10-22T11:23:42.699Z,68.42
2022-10-22T11:28:44.853Z,66.62
2022-10-22T11:33:43.948Z,66.99
2022-10-22T11:38:45.235Z,67.99
2022-10-22T11:43:48.339Z,66.66
2022-10-22T11:48:47.523Z,65.78
2022-10-22T11:53:49.623Z,66.89
2022-10-22T11:58:50.831Z,67.65
2022-10-22T12:03:49.750Z,68.26
2022-10-22T12:08:51.009Z,68.39
2022-10-22T12:13:52.097Z,67.76
2022-10-22T12:18:53.224Z,67.55
2022-10-22T12:23:54.312Z,68.15
2022-10-22T12:28:55.479Z,66.02
2022-10-22T12:33:56.636Z,67.02
2022-10-22T12:38:57.726Z,65.89
2022-10-22T12:43:58.929Z,64.98
2022-10-22T12:49:00.036Z,64.81
2022-10-22T12:54:01.135Z,63.31
2022-10-22T12:59:02.359Z,63.78
2022-10-22T13:04:04.443Z,63.56
2022-10-22T13:09:03.776Z,62.15
2022-10-22T13:14:05.003Z,60.82
2022-10-22T13:19:07.166Z,60.62
2022-10-22T13:24:06.270Z,61.32
2022-10-22T13:29:07.473Z,61.22
2022-10-22T13:34:10.897Z,60.25
2022-10-22T13:39:09.116Z,62.15
2022-10-22T13:44:11.206Z,63.58
2022-10-22T13:49:10.416Z,64.06
2022-10-22T13:54:11.548Z,62.15
2022-10-22T13:59:12.816Z,63.85
2022-10-22T14:04:13.996Z,64.95
2022-10-22T14:09:15.183Z,63.51
2022-10-22T14:14:16.788Z,66.08
2022-10-22T14:19:16.037Z,65.88
2022-10-22T14:24:18.126Z,70.12
2022-10-22T14:29:17.257Z,70.03
2022-10-22T14:34:18.605Z,73.04
2022-10-22T14:39:19.796Z,69.25
2022-10-22T14:44:20.887Z,74.69
2022-10-22T14:49:23.133Z,76.14
2022-10-22T14:54:23.278Z,78.99
2022-10-22T14:59:23.428Z,80.68
2022-10-22T15:04:22.740Z,82.03
2022-10-22T15:09:23.865Z,82.03
2022-10-22T15:14:25.976Z,82.17
2022-10-22T15:19:25.293Z,83.38
2022-10-22T15:24:26.493Z,82.61
2022-10-22T15:29:28.667Z,84.33
2022-10-22T15:34:27.795Z,83.72
2022-10-22T15:39:29.046Z,84.27
2022-10-22T15:44:30.248Z,86.02
2022-10-22T15:49:31.428Z,86.16
2022-10-22T15:54:31.765Z,87.38
2022-10-22T15:59:32.948Z,87.42
2022-10-22T16:04:34.120Z,87.12
2022-10-22T16:09:35.478Z,86.71
2022-10-22T16:14:36.591Z,88.88
2022-10-22T16:19:37.891Z,89.53
2022-10-22T16:24:39.024Z,91.19
2022-10-22T16:29:41.146Z,92.80
2022-10-22T16:34:40.212Z,91.74
2022-10-22T16:39:42.331Z,92.40
2022-10-22T16:44:41.486Z,92.94
2022-10-22T16:49:42.573Z,93.15
2022-10-22T16:54:43.704Z,93.90
2022-10-22T16:59:44.806Z,94.76
2022-10-22T17:04:46.287Z,94.45
2022-10-22T17:09:45.619Z,96.53
2022-10-22T17:14:47.780Z,95.92
2022-10-22T17:19:47.140Z,97.39
2022-10-22T17:24:48.330Z,97.08
2022-10-22T17:29:50.002Z,94.80
2022-10-22T17:34:50.505Z,92.38
2022-10-22T17:39:51.037Z,90.26
2022-10-22T17:44:50.376Z,89.21
2022-10-22T17:49:51.856Z,88.15
2022-10-22T17:54:51.265Z,86.59
2022-10-22T17:59:52.859Z,85.94
2022-10-22T18:04:52.216Z,86.15
2022-10-22T18:09:53.614Z,85.03
2022-10-22T18:14:55.041Z,86.13
2022-10-22T18:19:57.576Z,86.63
2022-10-22T18:24:56.924Z,85.58
2022-10-22T18:29:58.344Z,84.83
2022-10-22T18:34:59.769Z,84.22
2022-10-22T18:40:01.147Z,84.97
2022-10-22T18:45:02.558Z,84.97
2022-10-22T18:50:03.958Z,86.02
2022-10-22T18:55:05.146Z,85.48
2022-10-22T19:00:06.563Z,85.38
2022-10-22T19:05:05.912Z,85.17
2022-10-22T19:10:07.093Z,84.67
2022-10-22T19:15:08.310Z,85.07
2022-10-22T19:20:10.598Z,85.31
2022-10-22T19:25:11.976Z,85.66
2022-10-22T19:30:10.906Z,85.21
2022-10-22T19:35:10.956Z,83.96
2022-10-22T19:40:10.870Z,83.25
2022-10-22T19:45:10.032Z,82.54
2022-10-22T19:50:12.359Z,83.25
2022-10-22T19:55:11.570Z,82.98
2022-10-22T20:00:12.683Z,82.89
2022-10-22T20:05:14.834Z,83.23
2022-10-22T20:10:14.322Z,83.43
2022-10-22T20:15:13.892Z,83.94
2022-10-22T20:20:13.222Z,82.42
2022-10-22T20:25:14.364Z,82.82
2022-10-22T20:35:15.710Z,83.12
2022-10-22T20:40:16.901Z,83.77
2022-10-22T20:45:19.328Z,84.48
2022-10-22T20:50:18.550Z,82.92
2022-10-22T20:55:20.780Z,82.78
2022-10-22T21:00:20.918Z,80.65
2022-10-22T21:05:20.223Z,80.82
2022-10-22T21:10:22.356Z,80.25
2022-10-22T21:15:21.474Z,80.92
2022-10-22T21:20:24.825Z,80.01
2022-10-22T21:25:22.248Z,80.55
2022-10-22T21:30:23.414Z,79.50
2022-10-22T21:35:24.658Z,79.71
2022-10-22T21:40:25.899Z,80.21
2022-10-22T21:45:26.990Z,79.71
2022-10-22T21:50:28.098Z,78.28
2022-10-22T21:55:30.190Z,79.80
2022-10-22T22:00:29.321Z,78.89
2022-10-22T22:05:30.416Z,78.79
2022-10-22T22:10:31.588Z,78.89
2022-10-22T22:15:32.745Z,79.64
2022-10-22T22:20:34.103Z,79.24
2022-10-22T22:25:35.199Z,79.44
2022-10-22T22:30:37.291Z,78.42
2022-10-22T22:40:37.417Z,79.27
2022-10-22T22:45:36.506Z,80.43
2022-10-22T22:50:38.609Z,79.55
2022-10-22T22:55:38.689Z,79.31
2022-10-22T23:00:37.809Z,80.36
2022-10-22T23:05:39.029Z,80.26
2022-10-22T23:10:40.138Z,81.01
2022-10-22T23:15:41.513Z,83.53
2022-10-22T23:20:42.622Z,83.62
2022-10-22T23:25:43.711Z,82.98
2022-10-22T23:30:43.838Z,81.86
2022-10-22T23:35:45.081Z,81.21
2022-10-22T23:40:46.204Z,81.07
2022-10-22T23:45:47.330Z,78.60
2022-10-22T23:50:49.575Z,78.66
2022-10-22T23:55:49.627Z,79.07
